createdAt,value
2023-03-05T00:00:03.231Z,87.63
2023-03-05T00:01:03.408Z,87.53
2023-03-05T00:02:05.262Z,87.74
2023-03-05T00:03:03.167Z,87.63
2023-03-05T00:04:03.190Z,87.60
2023-03-05T00:05:03.193Z,87.49
2023-03-05T00:06:03.196Z,87.39
2023-03-05T00:07:03.157Z,87.49
2023-03-05T00:08:03.120Z,87.39
2023-03-05T00:09:03.127Z,87.49
2023-03-05T00:10:03.123Z,87.49
2023-03-05T00:11:03.079Z,87.60
2023-03-05T00:12:06.305Z,87.39
2023-03-05T00:13:03.089Z,87.39
2023-03-05T00:14:03.049Z,87.49
2023-03-05T00:15:03.068Z,87.49
2023-03-05T00:16:03.196Z,87.49
2023-03-05T00:17:03.045Z,87.49
2023-03-05T00:18:03.028Z,87.18
2023-03-05T00:19:03.045Z,87.18
2023-03-05T00:20:03.021Z,87.28
2023-03-05T00:21:02.980Z,87.18
2023-03-05T00:22:02.987Z,87.28
2023-03-05T00:23:02.945Z,87.49
2023-03-05T00:24:02.969Z,87.60
2023-03-05T00:25:02.950Z,87.49
2023-03-05T00:26:02.971Z,87.39
2023-03-05T00:27:05.905Z,87.49
2023-03-05T00:28:02.919Z,87.49
2023-03-05T00:29:02.885Z,87.49
2023-03-05T00:30:02.877Z,87.60
2023-03-05T00:31:02.883Z,87.60
2023-03-05T00:32:03.019Z,87.60
2023-03-05T00:33:02.869Z,87.60
2023-03-05T00:34:02.859Z,87.60
2023-03-05T00:35:02.831Z,87.70
2023-03-05T00:36:02.852Z,87.81
2023-03-05T00:37:02.812Z,87.81
2023-03-05T00:38:02.840Z,87.91
2023-03-05T00:39:02.818Z,87.81
2023-03-05T00:40:02.854Z,87.91
2023-03-05T00:41:02.790Z,87.70
2023-03-05T00:42:05.759Z,87.81
2023-03-05T00:43:02.786Z,87.81
2023-03-05T00:44:02.742Z,87.81
2023-03-05T00:45:03.700Z,87.81
2023-03-05T00:46:02.761Z,87.70
2023-03-05T00:47:02.700Z,87.91
2023-03-05T00:48:02.712Z,87.91
2023-03-05T00:49:02.677Z,87.81
2023-03-05T00:50:02.693Z,87.81
2023-03-05T00:51:02.683Z,87.70
2023-03-05T00:52:02.681Z,87.81
2023-03-05T00:53:02.642Z,87.70
2023-03-05T00:54:02.653Z,87.70
2023-03-05T00:55:02.642Z,87.81
2023-03-05T00:56:02.791Z,87.81
2023-03-05T00:57:05.605Z,87.91
2023-03-05T00:58:02.604Z,87.81
2023-03-05T00:59:02.606Z,87.70
2023-03-05T01:00:02.599Z,87.81
2023-03-05T01:01:02.607Z,87.81
2023-03-05T01:02:02.671Z,87.81
2023-03-05T01:03:02.565Z,87.70
2023-03-05T01:04:02.549Z,87.70
2023-03-05T01:05:02.552Z,87.81
2023-03-05T01:06:02.521Z,88.12
2023-03-05T01:07:02.619Z,88.12
2023-03-05T01:08:02.475Z,88.12
2023-03-05T01:09:02.476Z,88.12
2023-03-05T01:10:02.480Z,87.81
2023-03-05T01:11:02.501Z,87.81
2023-03-05T01:12:05.450Z,87.81
2023-03-05T01:13:02.430Z,87.60
2023-03-05T01:14:02.438Z,87.49
2023-03-05T01:15:02.412Z,87.60
2023-03-05T01:16:02.471Z,87.49
2023-03-05T01:17:02.387Z,87.49
2023-03-05T01:18:02.353Z,87.60
2023-03-05T01:19:02.344Z,87.49
2023-03-05T01:20:02.337Z,87.28
2023-03-05T01:21:02.351Z,87.60
2023-03-05T01:22:02.385Z,87.60
2023-03-05T01:23:02.330Z,87.49
2023-03-05T01:24:02.298Z,87.70
2023-03-05T01:25:02.310Z,87.49
2023-03-05T01:26:02.312Z,87.60
2023-03-05T01:27:05.262Z,87.70
2023-03-05T01:28:02.259Z,87.18
2023-03-05T01:29:02.261Z,86.97
2023-03-05T01:30:02.237Z,87.07
2023-03-05T01:31:02.239Z,87.07
2023-03-05T01:32:02.295Z,87.18
2023-03-05T01:33:02.228Z,87.18
2023-03-05T01:34:02.180Z,87.18
2023-03-05T01:35:02.197Z,87.18
2023-03-05T01:36:02.160Z,87.49
2023-03-05T01:37:02.292Z,87.28
2023-03-05T01:38:02.144Z,87.39
2023-03-05T01:39:02.168Z,87.49
2023-03-05T01:40:02.184Z,87.60
2023-03-05T01:41:02.140Z,87.70
2023-03-05T01:42:05.124Z,87.60
2023-03-05T01:43:02.134Z,87.70
2023-03-05T01:44:02.079Z,88.01
2023-03-05T01:45:02.070Z,87.70
2023-03-05T01:46:02.079Z,87.91
2023-03-05T01:47:02.080Z,87.91
2023-03-05T01:48:02.041Z,87.81
2023-03-05T01:49:02.048Z,87.70
2023-03-05T01:50:02.046Z,87.81
2023-03-05T01:51:02.114Z,87.39
2023-03-05T01:52:02.027Z,87.70
2023-03-05T01:53:01.987Z,87.60
2023-03-05T01:54:01.996Z,87.60
2023-03-05T01:55:01.984Z,87.39
2023-03-05T01:56:01.953Z,87.28
2023-03-05T01:57:04.984Z,87.18
2023-03-05T01:58:01.948Z,87.28
2023-03-05T01:59:01.956Z,87.39
2023-03-05T02:00:01.965Z,87.49
2023-03-05T02:01:01.981Z,87.49
2023-03-05T02:02:01.897Z,87.28
2023-03-05T02:03:01.920Z,87.28
2023-03-05T02:04:01.905Z,87.28
2023-03-05T02:05:01.883Z,87.49
2023-03-05T02:06:01.840Z,87.60
2023-03-05T02:07:01.863Z,87.60
2023-03-05T02:08:01.842Z,87.49
2023-03-05T02:09:01.830Z,87.07
2023-03-05T02:10:01.839Z,87.07
2023-03-05T02:11:01.796Z,87.28
2023-03-05T02:12:04.799Z,87.28
2023-03-05T02:13:01.789Z,87.07
2023-03-05T02:14:01.800Z,87.07
2023-03-05T02:15:01.847Z,87.18
2023-03-05T02:16:01.786Z,87.18
2023-03-05T02:17:01.729Z,87.18
2023-03-05T02:18:01.736Z,87.49
2023-03-05T02:19:01.739Z,87.39
2023-03-05T02:20:01.727Z,87.39
2023-03-05T02:21:01.730Z,87.39
2023-03-05T02:22:01.708Z,87.39
2023-03-05T02:23:01.670Z,87.49
2023-03-05T02:24:01.683Z,87.45
2023-03-05T02:25:01.689Z,87.66
2023-03-05T02:26:01.680Z,87.66
2023-03-05T02:27:04.630Z,87.87
2023-03-05T02:28:01.646Z,87.97
2023-03-05T02:29:01.612Z,87.87
2023-03-05T02:30:01.621Z,87.45
2023-03-05T02:31:01.598Z,87.49
2023-03-05T02:32:01.768Z,87.49
2023-03-05T02:33:01.590Z,87.49
2023-03-05T02:34:01.563Z,87.49
2023-03-05T02:35:01.578Z,87.49
2023-03-05T02:36:01.571Z,87.49
2023-03-05T02:37:01.573Z,87.28
2023-03-05T02:38:01.514Z,87.24
2023-03-05T02:39:01.513Z,87.49
2023-03-05T02:40:01.532Z,87.39
2023-03-05T02:41:01.494Z,87.18
2023-03-05T02:42:04.519Z,87.28
2023-03-05T02:43:01.517Z,87.39
2023-03-05T02:44:01.451Z,87.39
2023-03-05T02:45:01.448Z,87.35
2023-03-05T02:46:01.561Z,87.28
2023-03-05T02:47:01.431Z,87.28
2023-03-05T02:48:01.441Z,87.35
2023-03-05T02:49:01.435Z,87.18
2023-03-05T02:50:01.408Z,87.18
2023-03-05T02:51:01.432Z,87.28
2023-03-05T02:52:01.379Z,87.49
2023-03-05T02:53:01.492Z,87.28
2023-03-05T02:54:01.393Z,87.18
2023-03-05T02:55:01.387Z,87.18
2023-03-05T02:56:01.340Z,87.18
2023-03-05T02:57:04.324Z,87.18
2023-03-05T02:58:01.363Z,86.87
2023-03-05T02:59:01.302Z,86.87
2023-03-05T03:00:01.549Z,86.97
2023-03-05T03:01:01.322Z,87.07
2023-03-05T03:02:01.277Z,86.97
2023-03-05T03:03:01.357Z,86.97
2023-03-05T03:04:01.298Z,86.97
2023-03-05T03:05:01.269Z,86.87
2023-03-05T03:06:01.265Z,86.87
2023-03-05T03:07:01.229Z,86.87
2023-03-05T03:08:01.221Z,86.76
2023-03-05T03:09:01.258Z,86.87
2023-03-05T03:10:01.232Z,86.76
2023-03-05T03:11:01.186Z,86.87
2023-03-05T03:12:04.199Z,86.66
2023-03-05T03:13:01.202Z,86.93
2023-03-05T03:14:01.178Z,86.76
2023-03-05T03:15:01.169Z,86.76
2023-03-05T03:16:01.167Z,86.76
2023-03-05T03:17:01.245Z,86.87
2023-03-05T03:18:01.116Z,86.61
2023-03-05T03:19:01.098Z,86.97
2023-03-05T03:20:01.141Z,87.18
2023-03-05T03:21:01.081Z,87.18
2023-03-05T03:22:01.075Z,86.97
2023-03-05T03:23:01.085Z,86.97
2023-03-05T03:24:01.094Z,87.18
2023-03-05T03:25:01.043Z,87.18
2023-03-05T03:26:01.083Z,87.07
2023-03-05T03:27:04.065Z,86.97
2023-03-05T03:28:01.059Z,86.76
2023-03-05T03:29:01.028Z,86.66
2023-03-05T03:30:01.004Z,86.76
2023-03-05T03:31:00.993Z,86.87
2023-03-05T03:32:01.004Z,86.97
2023-03-05T03:33:00.957Z,86.87
2023-03-05T03:34:01.005Z,86.87
2023-03-05T03:35:00.968Z,86.87
2023-03-05T03:36:01.013Z,87.07
2023-03-05T03:37:00.951Z,86.97
2023-03-05T03:38:00.940Z,87.18
2023-03-05T03:39:00.933Z,87.07
2023-03-05T03:40:00.920Z,87.18
2023-03-05T03:41:00.887Z,87.07
2023-03-05T03:42:03.924Z,87.04
2023-03-05T03:43:00.910Z,87.24
2023-03-05T03:44:00.846Z,87.14
2023-03-05T03:45:00.868Z,87.18
2023-03-05T03:46:00.884Z,87.35
2023-03-05T03:47:00.850Z,87.55
2023-03-05T03:48:00.844Z,87.45
2023-03-05T03:49:00.857Z,87.45
2023-03-05T03:50:00.788Z,87.24
2023-03-05T03:51:00.775Z,87.24
2023-03-05T03:52:00.897Z,87.35
2023-03-05T03:53:00.783Z,87.28
2023-03-05T03:54:00.827Z,87.28
2023-03-05T03:55:00.732Z,87.28
2023-03-05T03:56:00.737Z,87.28
2023-03-05T03:57:03.798Z,87.49
2023-03-05T03:58:00.752Z,87.60
2023-03-05T03:59:00.699Z,87.81
2023-03-05T04:00:00.715Z,87.81
2023-03-05T04:01:00.681Z,87.60
2023-03-05T04:02:00.723Z,87.39
2023-03-05T04:03:00.661Z,87.49
2023-03-05T04:04:00.763Z,87.60
2023-03-05T04:05:00.664Z,87.55
2023-03-05T04:06:00.644Z,87.66
2023-03-05T04:07:00.632Z,87.55
2023-03-05T04:08:00.624Z,87.66
2023-03-05T04:09:00.626Z,87.66
2023-03-05T04:10:00.581Z,87.35
2023-03-05T04:11:00.632Z,87.35
2023-03-05T04:12:03.562Z,87.45
2023-03-05T04:13:00.573Z,87.45
2023-03-05T04:14:00.588Z,87.55
2023-03-05T04:15:00.534Z,87.55
2023-03-05T04:16:00.570Z,87.66
2023-03-05T04:17:00.534Z,87.66
2023-03-05T04:18:00.501Z,87.45
2023-03-05T04:19:00.647Z,87.14
2023-03-05T04:20:00.482Z,87.24
2023-03-05T04:21:00.510Z,87.24
2023-03-05T04:22:01.428Z,87.24
2023-03-05T04:23:00.452Z,87.55
2023-03-05T04:24:00.440Z,87.55
2023-03-05T04:25:00.444Z,87.55
2023-03-05T04:26:00.466Z,87.76
2023-03-05T04:27:03.403Z,87.55
2023-03-05T04:28:00.451Z,87.45
2023-03-05T04:29:00.388Z,87.66
2023-03-05T04:30:00.366Z,87.45
2023-03-05T04:31:00.438Z,87.35
2023-03-05T04:32:00.456Z,87.24
2023-03-05T04:33:00.340Z,86.93
2023-03-05T04:34:00.355Z,86.93
2023-03-05T04:35:00.328Z,87.24
2023-03-05T04:36:00.312Z,87.35
2023-03-05T04:37:00.335Z,87.60
2023-03-05T04:38:00.306Z,87.55
2023-03-05T04:39:00.320Z,87.66
2023-03-05T04:40:00.272Z,87.55
2023-03-05T04:41:00.263Z,87.24
2023-03-05T04:42:03.255Z,87.24
2023-03-05T04:43:00.254Z,87.35
2023-03-05T04:44:00.235Z,87.45
2023-03-05T04:45:00.229Z,87.45
2023-03-05T04:46:00.230Z,87.55
2023-03-05T04:47:00.190Z,87.55
2023-03-05T04:48:00.182Z,87.45
2023-03-05T04:49:00.207Z,87.14
2023-03-05T04:50:00.397Z,87.45
2023-03-05T04:51:00.146Z,87.45
2023-03-05T04:52:00.160Z,87.35
2023-03-05T04:53:00.159Z,87.35
2023-03-05T04:54:00.144Z,87.35
2023-03-05T04:55:00.205Z,87.45
2023-03-05T04:56:00.134Z,87.66
2023-03-05T04:57:03.104Z,87.55
2023-03-05T04:58:00.110Z,87.66
2023-03-05T04:59:00.107Z,87.87
2023-03-05T05:00:00.066Z,87.97
2023-03-05T05:01:00.209Z,87.76
2023-03-05T05:02:00.180Z,87.76
2023-03-05T05:03:00.129Z,87.87
2023-03-05T05:04:00.057Z,87.45
2023-03-05T05:05:00.034Z,87.04
2023-03-05T05:06:00.001Z,87.35
2023-03-05T05:07:00.033Z,87.35
2023-03-05T05:07:59.985Z,87.55
2023-03-05T05:08:59.973Z,87.45
2023-03-05T05:09:59.963Z,87.45
2023-03-05T05:10:59.970Z,87.45
2023-03-05T05:12:02.963Z,87.35
2023-03-05T05:12:59.988Z,87.45
2023-03-05T05:13:59.955Z,87.55
2023-03-05T05:15:00.055Z,87.66
2023-03-05T05:15:59.988Z,87.66
2023-03-05T05:16:59.933Z,87.76
2023-03-05T05:17:59.900Z,87.55
2023-03-05T05:19:00.000Z,87.60
2023-03-05T05:19:59.857Z,87.91
2023-03-05T05:20:59.985Z,88.12
2023-03-05T05:21:59.845Z,87.81
2023-03-05T05:22:59.823Z,87.91
2023-03-05T05:23:59.846Z,88.08
2023-03-05T05:24:59.838Z,88.22
2023-03-05T05:25:59.817Z,88.18
2023-03-05T05:27:02.807Z,87.91
2023-03-05T05:27:59.796Z,88.01
2023-03-05T05:28:59.765Z,88.12
2023-03-05T05:29:59.776Z,87.91
2023-03-05T05:30:59.725Z,87.70
2023-03-05T05:31:59.730Z,87.81
2023-03-05T05:32:59.752Z,88.22
2023-03-05T05:33:59.746Z,88.32
2023-03-05T05:34:59.747Z,88.22
2023-03-05T05:35:59.709Z,88.22
2023-03-05T05:36:59.719Z,88.32
2023-03-05T05:38:00.608Z,88.85
2023-03-05T05:38:59.642Z,88.95
2023-03-05T05:39:59.629Z,89.06
2023-03-05T05:40:59.594Z,89.06
2023-03-05T05:42:02.620Z,89.26
2023-03-05T05:42:59.615Z,89.37
2023-03-05T05:43:59.592Z,89.37
2023-03-05T05:44:59.556Z,89.62
2023-03-05T05:45:59.648Z,89.62
2023-03-05T05:46:59.534Z,89.83
2023-03-05T05:47:59.555Z,89.83
2023-03-05T05:48:59.665Z,90.14
2023-03-05T05:49:59.507Z,90.35
2023-03-05T05:50:59.523Z,90.77
2023-03-05T05:51:59.487Z,90.87
2023-03-05T05:52:59.630Z,91.18
2023-03-05T05:53:59.485Z,91.18
2023-03-05T05:54:59.476Z,91.18
2023-03-05T05:55:59.482Z,91.08
2023-03-05T05:57:02.442Z,90.97
2023-03-05T05:57:59.463Z,90.97
2023-03-05T05:58:59.408Z,90.77
2023-03-05T05:59:59.433Z,90.56
2023-03-05T06:00:59.425Z,90.45
2023-03-05T06:01:59.470Z,90.56
2023-03-05T06:02:59.420Z,90.45
2023-03-05T06:03:59.355Z,90.45
2023-03-05T06:04:59.372Z,90.14
2023-03-05T06:05:59.342Z,90.00
2023-03-05T06:06:59.348Z,90.20
2023-03-05T06:07:59.356Z,90.45
2023-03-05T06:08:59.297Z,90.25
2023-03-05T06:09:59.318Z,90.45
2023-03-05T06:10:59.310Z,90.77
2023-03-05T06:12:02.300Z,91.08
2023-03-05T06:12:59.389Z,91.39
2023-03-05T06:13:59.285Z,91.71
2023-03-05T06:14:59.309Z,91.91
2023-03-05T06:15:59.242Z,92.12
2023-03-05T06:16:59.252Z,92.22
2023-03-05T06:17:59.232Z,92.33
2023-03-05T06:18:59.201Z,92.22
2023-03-05T06:19:59.196Z,92.02
2023-03-05T06:20:59.182Z,91.91
2023-03-05T06:21:59.235Z,91.91
2023-03-05T06:22:59.158Z,91.81
2023-03-05T06:23:59.178Z,91.81
2023-03-05T06:24:59.173Z,91.81
2023-03-05T06:25:59.150Z,91.71
2023-03-05T06:27:02.141Z,91.71
2023-03-05T06:27:59.127Z,91.71
2023-03-05T06:28:59.168Z,91.60
2023-03-05T06:29:59.110Z,91.71
2023-03-05T06:30:59.193Z,91.91
2023-03-05T06:31:59.114Z,91.91
2023-03-05T06:32:59.081Z,91.81
2023-03-05T06:33:59.075Z,91.60
2023-03-05T06:34:59.031Z,91.60
2023-03-05T06:35:59.101Z,91.81
2023-03-05T06:36:59.047Z,92.12
2023-03-05T06:37:59.003Z,92.12
2023-03-05T06:38:59.022Z,92.02
2023-03-05T06:39:58.982Z,91.81
2023-03-05T06:40:58.990Z,91.60
2023-03-05T06:42:01.980Z,91.39
2023-03-05T06:42:58.968Z,91.18
2023-03-05T06:43:58.936Z,90.97
2023-03-05T06:44:58.952Z,90.87
2023-03-05T06:45:58.959Z,90.97
2023-03-05T06:46:58.902Z,91.08
2023-03-05T06:47:58.921Z,90.97
2023-03-05T06:48:58.912Z,90.87
2023-03-05T06:49:58.907Z,90.87
2023-03-05T06:50:58.887Z,90.97
2023-03-05T06:51:58.852Z,90.97
2023-03-05T06:52:58.865Z,90.25
2023-03-05T06:53:58.893Z,90.25
2023-03-05T06:54:59.008Z,90.25
2023-03-05T06:55:58.810Z,90.10
2023-03-05T06:57:01.960Z,90.20
2023-03-05T06:57:58.810Z,90.31
2023-03-05T06:58:58.817Z,90.00
2023-03-05T06:59:58.805Z,89.89
2023-03-05T07:00:58.845Z,90.10
2023-03-05T07:01:58.782Z,90.10
2023-03-05T07:02:58.744Z,89.89
2023-03-05T07:03:58.775Z,89.68
2023-03-05T07:04:58.766Z,89.54
2023-03-05T07:05:58.709Z,89.75
2023-03-05T07:06:58.796Z,89.75
2023-03-05T07:07:58.723Z,89.43
2023-03-05T07:08:58.716Z,89.22
2023-03-05T07:09:58.667Z,88.39
2023-03-05T07:10:58.682Z,88.49
2023-03-05T07:12:01.667Z,88.49
2023-03-05T07:12:58.668Z,88.39
2023-03-05T07:13:58.628Z,88.08
2023-03-05T07:14:58.619Z,88.04
2023-03-05T07:15:58.633Z,87.83
2023-03-05T07:16:58.598Z,88.14
2023-03-05T07:17:58.589Z,87.83
2023-03-05T07:18:58.569Z,87.73
2023-03-05T07:19:58.599Z,87.73
2023-03-05T07:20:58.550Z,87.73
2023-03-05T07:21:58.573Z,87.62
2023-03-05T07:22:58.591Z,87.52
2023-03-05T07:23:58.544Z,87.30
2023-03-05T07:24:58.531Z,87.52
2023-03-05T07:25:58.539Z,86.79
2023-03-05T07:27:01.490Z,86.89
2023-03-05T07:27:58.550Z,87.10
2023-03-05T07:28:58.535Z,86.99
2023-03-05T07:29:58.460Z,87.06
2023-03-05T07:30:58.520Z,86.75
2023-03-05T07:31:58.482Z,86.85
2023-03-05T07:32:58.418Z,87.06
2023-03-05T07:33:58.443Z,86.75
2023-03-05T07:34:58.434Z,87.06
2023-03-05T07:35:58.454Z,87.16
2023-03-05T07:36:58.430Z,87.06
2023-03-05T07:37:58.398Z,86.54
2023-03-05T07:38:58.384Z,86.33
2023-03-05T07:39:58.517Z,86.29
2023-03-05T07:40:58.342Z,86.40
2023-03-05T07:42:01.459Z,86.29
2023-03-05T07:42:58.345Z,86.29
2023-03-05T07:43:58.312Z,86.40
2023-03-05T07:44:58.336Z,86.29
2023-03-05T07:45:58.319Z,86.40
2023-03-05T07:46:58.320Z,86.08
2023-03-05T07:47:58.278Z,85.77
2023-03-05T07:48:58.322Z,85.67
2023-03-05T07:49:58.272Z,85.77
2023-03-05T07:50:58.252Z,85.56
2023-03-05T07:51:58.240Z,85.46
2023-03-05T07:52:58.252Z,85.67
2023-03-05T07:53:58.242Z,85.56
2023-03-05T07:54:58.194Z,85.77
2023-03-05T07:55:58.231Z,85.83
2023-03-05T07:57:01.204Z,85.73
2023-03-05T07:57:58.207Z,85.52
2023-03-05T07:58:58.206Z,85.83
2023-03-05T07:59:58.180Z,85.73
2023-03-05T08:00:58.157Z,85.63
2023-03-05T08:01:58.136Z,85.31
2023-03-05T08:02:58.116Z,85.11
2023-03-05T08:03:58.190Z,85.31
2023-03-05T08:04:58.175Z,85.31
2023-03-05T08:05:58.122Z,85.17
2023-03-05T08:06:58.103Z,85.28
2023-03-05T08:07:58.056Z,85.28
2023-03-05T08:08:58.059Z,85.17
2023-03-05T08:09:58.077Z,84.86
2023-03-05T08:10:58.188Z,84.34
2023-03-05T08:12:01.025Z,84.03
2023-03-05T08:12:58.056Z,84.09
2023-03-05T08:13:58.023Z,84.20
2023-03-05T08:14:58.027Z,84.09
2023-03-05T08:15:58.019Z,84.09
2023-03-05T08:16:58.000Z,83.64
2023-03-05T08:17:57.968Z,83.22
2023-03-05T08:18:58.059Z,83.43
2023-03-05T08:19:57.948Z,83.33
2023-03-05T08:20:57.946Z,83.22
2023-03-05T08:21:57.953Z,83.22
2023-03-05T08:22:57.935Z,83.43
2023-03-05T08:23:57.925Z,83.64
2023-03-05T08:24:57.891Z,83.64
2023-03-05T08:25:57.938Z,83.70
2023-03-05T08:27:00.870Z,83.18
2023-03-05T08:27:57.880Z,82.15
2023-03-05T08:28:57.887Z,82.25
2023-03-05T08:29:57.861Z,82.35
2023-03-05T08:30:57.876Z,82.35
2023-03-05T08:31:57.925Z,83.08
2023-03-05T08:32:57.815Z,83.43
2023-03-05T08:33:57.853Z,83.22
2023-03-05T08:34:57.832Z,83.01
2023-03-05T08:35:58.808Z,83.01
2023-03-05T08:36:57.780Z,83.29
2023-03-05T08:37:57.794Z,82.67
2023-03-05T08:38:57.770Z,82.35
2023-03-05T08:39:57.742Z,82.35
2023-03-05T08:40:57.747Z,82.56
2023-03-05T08:42:00.729Z,82.53
2023-03-05T08:42:57.722Z,81.59
2023-03-05T08:43:57.700Z,80.97
2023-03-05T08:44:57.724Z,80.55
2023-03-05T08:45:57.707Z,80.87
2023-03-05T08:46:57.763Z,80.55
2023-03-05T08:47:57.689Z,80.66
2023-03-05T08:48:57.756Z,80.45
2023-03-05T08:49:57.703Z,80.66
2023-03-05T08:50:57.650Z,80.55
2023-03-05T08:51:57.622Z,80.87
2023-03-05T08:52:57.634Z,80.66
2023-03-05T08:53:57.624Z,81.04
2023-03-05T08:54:57.612Z,80.62
2023-03-05T08:55:57.592Z,80.73
2023-03-05T08:57:00.601Z,80.52
2023-03-05T08:57:57.578Z,80.62
2023-03-05T08:58:57.932Z,81.04
2023-03-05T08:59:57.561Z,80.47
2023-03-05T09:00:57.556Z,79.24
2023-03-05T09:01:57.580Z,79.96
2023-03-05T09:02:57.558Z,80.58
2023-03-05T09:03:57.495Z,80.27
2023-03-05T09:04:57.503Z,79.65
2023-03-05T09:05:57.505Z,79.65
2023-03-05T09:06:57.478Z,79.34
2023-03-05T09:07:57.454Z,79.51
2023-03-05T09:08:57.439Z,79.20
2023-03-05T09:09:57.504Z,79.10
2023-03-05T09:10:58.413Z,78.58
2023-03-05T09:12:00.423Z,78.47
2023-03-05T09:12:57.446Z,78.37
2023-03-05T09:13:57.417Z,78.85
2023-03-05T09:14:57.435Z,78.85
2023-03-05T09:15:57.448Z,78.02
2023-03-05T09:16:57.362Z,78.02
2023-03-05T09:17:57.347Z,77.61
2023-03-05T09:18:57.380Z,78.02
2023-03-05T09:19:57.332Z,78.30
2023-03-05T09:20:57.475Z,78.19
2023-03-05T09:21:57.342Z,77.47
2023-03-05T09:22:57.341Z,77.61
2023-03-05T09:23:57.318Z,78.02
2023-03-05T09:24:57.330Z,78.12
2023-03-05T09:25:57.277Z,78.75
2023-03-05T09:27:00.255Z,78.50
2023-03-05T09:27:57.287Z,78.40
2023-03-05T09:28:57.240Z,78.05
2023-03-05T09:29:57.235Z,77.33
2023-03-05T09:30:57.249Z,76.61
2023-03-05T09:31:57.294Z,76.61
2023-03-05T09:32:57.352Z,77.33
2023-03-05T09:33:57.215Z,77.01
2023-03-05T09:34:57.178Z,77.22
2023-03-05T09:35:57.222Z,76.71
2023-03-05T09:36:57.162Z,77.33
2023-03-05T09:37:57.179Z,77.12
2023-03-05T09:38:57.167Z,76.50
2023-03-05T09:39:57.120Z,75.74
2023-03-05T09:40:57.220Z,76.78
2023-03-05T09:42:00.153Z,76.53
2023-03-05T09:42:57.137Z,76.22
2023-03-05T09:43:57.115Z,76.09
2023-03-05T09:44:57.096Z,75.46
2023-03-05T09:45:57.097Z,75.22
2023-03-05T09:46:57.072Z,75.09
2023-03-05T09:47:57.110Z,75.05
2023-03-05T09:48:57.096Z,74.50
2023-03-05T09:49:57.022Z,74.15
2023-03-05T09:50:57.008Z,73.30
2023-03-05T09:51:56.999Z,73.88
2023-03-05T09:52:56.991Z,73.57
2023-03-05T09:53:57.007Z,70.68
2023-03-05T09:54:56.994Z,70.37
2023-03-05T09:55:57.937Z,70.96
2023-03-05T09:56:59.977Z,71.78
2023-03-05T09:57:57.051Z,70.55
2023-03-05T09:58:56.963Z,69.42
2023-03-05T09:59:56.943Z,68.08
2023-03-05T10:00:56.934Z,68.32
2023-03-05T10:01:56.927Z,68.90
2023-03-05T10:02:56.928Z,70.55
2023-03-05T10:03:56.946Z,70.65
2023-03-05T10:04:56.863Z,70.62
2023-03-05T10:05:56.866Z,69.90
2023-03-05T10:06:56.881Z,69.15
2023-03-05T10:07:56.846Z,68.43
2023-03-05T10:08:56.959Z,68.05
2023-03-05T10:09:57.179Z,68.53
2023-03-05T10:10:57.813Z,68.12
2023-03-05T10:11:59.860Z,67.57
2023-03-05T10:12:57.790Z,68.50
2023-03-05T10:13:56.849Z,67.26
2023-03-05T10:14:56.817Z,67.26
2023-03-05T10:15:56.776Z,67.47
2023-03-05T10:16:56.841Z,67.30
2023-03-05T10:17:56.735Z,67.81
2023-03-05T10:18:56.747Z,68.12
2023-03-05T10:19:56.732Z,68.40
2023-03-05T10:20:56.752Z,67.57
2023-03-05T10:21:56.722Z,67.36
2023-03-05T10:22:56.702Z,67.06
2023-03-05T10:23:56.667Z,67.33
2023-03-05T10:24:56.668Z,67.09
2023-03-05T10:25:56.669Z,68.77
2023-03-05T10:26:59.675Z,69.14
2023-03-05T10:27:57.630Z,69.96
2023-03-05T10:28:56.608Z,70.76
2023-03-05T10:29:56.609Z,69.01
2023-03-05T10:30:56.596Z,69.28
2023-03-05T10:31:56.669Z,67.33
2023-03-05T10:32:56.571Z,66.99
2023-03-05T10:33:56.593Z,66.85
2023-03-05T10:34:56.580Z,67.78
2023-03-05T10:35:56.594Z,66.93
2023-03-05T10:36:58.336Z,66.41
2023-03-05T10:37:56.519Z,65.59
2023-03-05T10:38:56.510Z,65.25
2023-03-05T10:39:56.515Z,64.84
2023-03-05T10:40:56.520Z,65.59
2023-03-05T10:41:59.515Z,65.69
2023-03-05T10:42:56.530Z,66.28
2023-03-05T10:43:56.452Z,66.07
2023-03-05T10:44:56.495Z,65.12
2023-03-05T10:45:56.525Z,64.81
2023-03-05T10:46:56.431Z,64.12
2023-03-05T10:47:56.451Z,64.46
2023-03-05T10:48:56.409Z,65.31
2023-03-05T10:49:56.417Z,65.92
2023-03-05T10:50:56.422Z,64.79
2023-03-05T10:51:56.407Z,64.59
2023-03-05T10:52:56.399Z,65.44
2023-03-05T10:53:58.199Z,66.19
2023-03-05T10:54:56.344Z,66.53
2023-03-05T10:55:57.285Z,67.15
2023-03-05T10:56:59.321Z,67.66
2023-03-05T10:57:57.291Z,66.87
2023-03-05T10:58:56.373Z,67.08
2023-03-05T10:59:56.322Z,67.15
2023-03-05T11:00:56.354Z,66.19
2023-03-05T11:01:56.275Z,66.19
2023-03-05T11:02:56.266Z,67.84
2023-03-05T11:03:56.275Z,67.63
2023-03-05T11:04:56.234Z,68.15
2023-03-05T11:05:56.257Z,68.08
2023-03-05T11:06:56.263Z,67.25
2023-03-05T11:07:56.243Z,67.57
2023-03-05T11:08:57.149Z,68.08
2023-03-05T11:09:57.154Z,67.77
2023-03-05T11:10:56.207Z,67.77
2023-03-05T11:11:59.193Z,67.77
2023-03-05T11:12:56.202Z,67.49
2023-03-05T11:13:56.148Z,67.49
2023-03-05T11:14:56.187Z,67.08
2023-03-05T11:15:57.131Z,67.70
2023-03-05T11:16:56.132Z,67.90
2023-03-05T11:17:56.126Z,67.46
2023-03-05T11:18:56.226Z,67.15
2023-03-05T11:19:56.114Z,67.97
2023-03-05T11:20:56.103Z,67.05
2023-03-05T11:21:56.053Z,66.53
2023-03-05T11:22:56.077Z,66.22
2023-03-05T11:23:56.069Z,65.71
2023-03-05T11:24:56.057Z,66.22
2023-03-05T11:25:56.068Z,66.12
2023-03-05T11:26:59.398Z,65.95
2023-03-05T11:27:56.101Z,66.15
2023-03-05T11:28:56.437Z,66.46
2023-03-05T11:29:56.006Z,66.33
2023-03-05T11:30:56.033Z,66.15
2023-03-05T11:31:56.931Z,66.67
2023-03-05T11:32:57.107Z,67.80
2023-03-05T11:33:56.089Z,66.87
2023-03-05T11:34:56.225Z,66.97
2023-03-05T11:35:56.913Z,66.67
2023-03-05T11:36:57.105Z,66.15
2023-03-05T11:37:55.924Z,65.64
2023-03-05T11:38:55.891Z,65.12
2023-03-05T11:39:56.018Z,65.02
2023-03-05T11:40:56.862Z,65.74
2023-03-05T11:41:58.852Z,64.81
2023-03-05T11:42:55.887Z,65.64
2023-03-05T11:43:55.833Z,64.92
2023-03-05T11:44:55.845Z,65.43
2023-03-05T11:45:56.831Z,65.64
2023-03-05T11:46:55.837Z,65.95
2023-03-05T11:47:55.834Z,64.71
2023-03-05T11:48:55.788Z,65.33
2023-03-05T11:49:55.800Z,64.09
2023-03-05T11:50:55.775Z,64.50
2023-03-05T11:51:55.756Z,64.53
2023-03-05T11:52:55.768Z,64.12
2023-03-05T11:53:55.769Z,64.64
2023-03-05T11:54:55.767Z,65.59
2023-03-05T11:55:56.716Z,66.08
2023-03-05T11:56:58.725Z,65.98
2023-03-05T11:57:56.680Z,66.60
2023-03-05T11:58:55.712Z,66.91
2023-03-05T11:59:55.692Z,67.32
2023-03-05T12:00:56.647Z,66.60
2023-03-05T12:01:55.682Z,66.80
2023-03-05T12:02:55.784Z,66.28
2023-03-05T12:03:55.858Z,65.56
2023-03-05T12:04:55.632Z,64.92
2023-03-05T12:05:55.633Z,64.61
2023-03-05T12:06:55.753Z,65.84
2023-03-05T12:07:55.622Z,65.64
2023-03-05T12:08:55.572Z,64.27
2023-03-05T12:09:55.584Z,63.85
2023-03-05T12:10:55.567Z,64.17
2023-03-05T12:11:58.830Z,63.65
2023-03-05T12:12:55.584Z,64.37
2023-03-05T12:13:56.474Z,63.13
2023-03-05T12:14:55.552Z,64.06
2023-03-05T12:15:56.525Z,63.72
2023-03-05T12:16:55.513Z,63.00
2023-03-05T12:17:55.509Z,63.00
2023-03-05T12:18:55.471Z,62.90
2023-03-05T12:19:55.484Z,63.52
2023-03-05T12:20:56.472Z,63.31
2023-03-05T12:21:55.847Z,62.41
2023-03-05T12:22:56.518Z,63.54
2023-03-05T12:23:56.723Z,62.93
2023-03-05T12:24:56.438Z,63.13
2023-03-05T12:25:55.551Z,62.62
2023-03-05T12:26:58.495Z,62.82
2023-03-05T12:27:55.416Z,64.37
2023-03-05T12:28:55.397Z,64.19
2023-03-05T12:29:55.420Z,64.58
2023-03-05T12:30:55.388Z,65.40
2023-03-05T12:31:55.341Z,65.68
2023-03-05T12:32:55.476Z,65.47
2023-03-05T12:33:55.326Z,65.55
2023-03-05T12:34:55.310Z,64.24
2023-03-05T12:35:55.418Z,64.54
2023-03-05T12:36:55.295Z,65.40
2023-03-05T12:37:55.308Z,64.92
2023-03-05T12:38:55.297Z,65.84
2023-03-05T12:39:55.265Z,65.15
2023-03-05T12:40:55.443Z,66.70
2023-03-05T12:41:58.336Z,65.88
2023-03-05T12:42:55.270Z,66.70
2023-03-05T12:43:55.234Z,66.77
2023-03-05T12:44:55.233Z,65.92
2023-03-05T12:45:55.222Z,65.50
2023-03-05T12:46:55.562Z,64.44
2023-03-05T12:47:55.296Z,64.03
2023-03-05T12:48:55.194Z,63.79
2023-03-05T12:49:55.153Z,64.21
2023-03-05T12:50:55.142Z,62.95
2023-03-05T12:51:55.137Z,62.66